createdAt,value
2019-04-19T00:02:11.841Z,4.00
2019-04-19T00:04:41.466Z,4.10
2019-04-19T00:07:15.500Z,5.10
2019-04-19T00:09:50.588Z,4.23
2019-04-19T00:12:23.212Z,3.60
2019-04-19T00:14:39.959Z,4.17
2019-04-19T00:17:13.929Z,3.97
2019-04-19T00:19:57.935Z,4.20
2019-04-19T00:22:28.977Z,3.77
2019-04-19T00:24:39.612Z,4.47
2019-04-19T00:27:09.644Z,3.40
2019-04-19T00:29:48.025Z,3.10
2019-04-19T00:32:24.101Z,3.90
2019-04-19T00:34:39.751Z,4.87
2019-04-19T00:37:08.403Z,3.33
2019-04-19T00:39:53.951Z,4.33
2019-04-19T00:42:31.464Z,4.00
2019-04-19T00:45:19.936Z,4.23
2019-04-19T00:47:47.408Z,3.83
2019-04-19T00:50:14.847Z,4.30
2019-04-19T00:52:55.679Z,4.10
2019-04-19T00:55:10.344Z,3.60
2019-04-19T00:57:40.028Z,4.20
2019-04-19T01:00:03.889Z,4.43
2019-04-19T01:02:35.289Z,3.90
2019-04-19T01:05:08.612Z,3.63
2019-04-19T01:07:36.213Z,4.13
2019-04-19T01:10:18.992Z,3.97
2019-04-19T01:12:48.088Z,3.73
2019-04-19T01:15:16.511Z,3.90
2019-04-19T01:17:54.256Z,3.90
2019-04-19T01:20:11.866Z,4.10
2019-04-19T01:22:38.346Z,3.70
2019-04-19T01:25:10.399Z,3.93
2019-04-19T01:27:38.836Z,3.30
2019-04-19T01:30:08.527Z,3.60
2019-04-19T01:32:47.005Z,4.00
2019-04-19T01:35:12.248Z,3.03
2019-04-19T01:37:39.056Z,4.20
2019-04-19T01:40:22.498Z,4.30
2019-04-19T01:43:01.948Z,3.87
2019-04-19T01:45:46.907Z,3.83
2019-04-19T01:48:20.422Z,4.60
2019-04-19T01:50:50.282Z,4.30
2019-04-19T01:53:37.510Z,4.50
2019-04-19T01:55:59.243Z,4.43
2019-04-19T01:58:22.920Z,4.17
2019-04-19T02:00:56.633Z,4.50
2019-04-19T02:03:29.432Z,4.60
2019-04-19T02:05:55.534Z,4.60
2019-04-19T02:08:22.778Z,4.13
2019-04-19T02:11:39.751Z,3.90
2019-04-19T02:14:03.847Z,4.43
2019-04-19T02:16:29.715Z,4.63
2019-04-19T02:19:05.343Z,4.23
2019-04-19T02:21:33.249Z,4.27
2019-04-19T02:24:01.805Z,4.47
2019-04-19T02:26:29.950Z,5.00
2019-04-19T02:29:07.583Z,4.50
2019-04-19T02:31:54.412Z,4.63
2019-04-19T02:37:02.773Z,4.13
2019-04-19T02:41:57.883Z,4.13
2019-04-19T02:44:33.537Z,5.10
2019-04-19T02:47:07.077Z,4.83
2019-04-19T02:49:37.429Z,4.10
2019-04-19T02:52:06.187Z,4.23
2019-04-19T02:54:50.227Z,4.80
2019-04-19T02:57:29.536Z,4.50
2019-04-19T02:59:59.646Z,4.00
2019-04-19T03:05:13.586Z,4.40
2019-04-19T03:07:15.719Z,5.07
2019-04-19T03:09:46.771Z,4.30
2019-04-19T03:12:32.133Z,4.37
2019-04-19T03:15:02.070Z,4.50
2019-04-19T03:17:35.025Z,4.63
2019-04-19T03:20:02.221Z,5.00
2019-04-19T03:22:31.032Z,4.87
2019-04-19T03:25:00.778Z,4.17
2019-04-19T03:27:23.027Z,4.20
2019-04-19T03:29:49.032Z,5.50
2019-04-19T03:32:53.423Z,5.47
2019-04-19T03:35:04.136Z,4.87
2019-04-19T03:37:39.984Z,5.00
2019-04-19T03:40:14.678Z,4.93
2019-04-19T03:42:40.506Z,3.93
2019-04-19T03:45:08.634Z,5.10
2019-04-19T03:47:44.334Z,5.00
2019-04-19T03:50:12.206Z,4.73
2019-04-19T03:52:36.911Z,5.17
2019-04-19T03:55:09.341Z,5.50
2019-04-19T03:57:32.689Z,4.83
2019-04-19T03:59:52.184Z,4.27
2019-04-19T04:02:24.578Z,9.53
2019-04-19T04:04:57.224Z,4.90
2019-04-19T04:07:25.791Z,5.23
2019-04-19T04:09:57.450Z,4.80
2019-04-19T04:12:40.548Z,4.83
2019-04-19T04:15:14.179Z,5.27
2019-04-19T04:17:35.293Z,5.23
2019-04-19T04:20:07.404Z,5.47
2019-04-19T04:22:39.051Z,5.17
2019-04-19T04:25:16.377Z,4.80
2019-04-19T04:27:49.513Z,4.77
2019-04-19T04:30:17.521Z,5.70
2019-04-19T04:32:52.778Z,4.53
2019-04-19T04:35:24.359Z,5.20
2019-04-19T04:37:52.723Z,5.50
2019-04-19T04:40:08.765Z,5.67
2019-04-19T04:42:44.420Z,5.50
2019-04-19T04:45:27.735Z,4.70
2019-04-19T04:47:56.149Z,5.97
2019-04-19T04:50:57.697Z,5.20
2019-04-19T04:53:04.822Z,5.60
2019-04-19T04:55:59.010Z,5.60
2019-04-19T04:58:30.357Z,5.90
2019-04-19T05:01:01.465Z,5.53
2019-04-19T05:03:45.611Z,8.97
2019-04-19T05:06:14.001Z,5.03
2019-04-19T05:08:46.104Z,5.10
2019-04-19T05:11:11.961Z,5.87
2019-04-19T05:13:43.646Z,5.50
2019-04-19T05:16:22.448Z,5.30
2019-04-19T05:18:45.757Z,5.17
2019-04-19T05:21:14.758Z,6.03
2019-04-19T05:23:45.385Z,5.20
2019-04-19T05:26:31.034Z,5.90
2019-04-19T05:28:40.818Z,5.90
2019-04-19T05:31:02.095Z,5.70
2019-04-19T05:33:43.081Z,4.83
2019-04-19T05:36:17.856Z,5.40
2019-04-19T05:38:57.330Z,5.43
2019-04-19T05:41:29.671Z,5.67
2019-04-19T05:44:21.937Z,6.93
2019-04-19T05:46:41.927Z,5.53
2019-04-19T05:49:06.561Z,5.23
2019-04-19T05:51:43.758Z,6.00
2019-04-19T05:53:55.111Z,5.30
2019-04-19T05:56:20.569Z,5.60
2019-04-19T05:59:01.529Z,5.60
2019-04-19T06:01:36.075Z,5.10
2019-04-19T06:04:07.464Z,5.60
2019-04-19T06:06:43.818Z,6.23
2019-04-19T06:08:49.978Z,5.40
2019-04-19T06:11:26.236Z,5.30
2019-04-19T06:14:04.193Z,5.90
2019-04-19T06:16:36.845Z,5.27
2019-04-19T06:19:12.764Z,5.30
2019-04-19T06:21:36.672Z,5.40
2019-04-19T06:24:11.984Z,5.10
2019-04-19T06:26:58.887Z,5.73
2019-04-19T06:29:10.879Z,5.60
2019-04-19T06:31:48.786Z,4.90
2019-04-19T06:34:09.202Z,5.53
2019-04-19T06:36:23.037Z,5.20
2019-04-19T06:38:52.779Z,5.00
2019-04-19T06:41:23.798Z,5.33
2019-04-19T06:44:01.620Z,5.60
2019-04-19T06:46:36.315Z,4.97
2019-04-19T06:48:59.564Z,5.33
2019-04-19T06:51:31.634Z,5.50
2019-04-19T06:53:57.225Z,5.20
2019-04-19T06:56:29.622Z,5.57
2019-04-19T06:59:06.228Z,5.80
2019-04-19T07:01:33.593Z,5.33
2019-04-19T07:03:53.703Z,6.00
2019-04-19T07:06:36.335Z,5.37
2019-04-19T07:09:35.604Z,5.03
2019-04-19T07:11:46.449Z,5.93
2019-04-19T07:14:03.057Z,6.20
2019-04-19T07:16:44.376Z,7.37
2019-04-19T07:19:14.587Z,5.67
2019-04-19T07:21:42.585Z,5.70
2019-04-19T07:24:19.244Z,5.37
2019-04-19T07:26:44.938Z,5.07
2019-04-19T07:28:53.966Z,4.80
2019-04-19T07:31:23.793Z,5.80
2019-04-19T07:34:03.552Z,5.43
2019-04-19T07:36:48.109Z,5.37
2019-04-19T07:39:09.223Z,5.43
2019-04-19T07:41:38.369Z,5.87
2019-04-19T07:44:08.631Z,5.40
2019-04-19T07:46:48.945Z,5.33
2019-04-19T07:48:59.868Z,6.80
2019-04-19T07:51:35.287Z,5.90
2019-04-19T07:54:00.645Z,5.77
2019-04-19T07:56:44.186Z,5.57
2019-04-19T07:59:30.714Z,6.07
2019-04-19T08:09:30.672Z,5.70
2019-04-19T08:14:38.370Z,6.00
2019-04-19T08:17:31.285Z,22.93
2019-04-19T08:29:16.886Z,5.40
2019-04-19T08:31:32.147Z,4.93
2019-04-19T08:34:02.683Z,5.23
2019-04-19T08:36:35.749Z,6.30
2019-04-19T08:39:19.126Z,5.70
2019-04-19T08:41:48.026Z,5.87
2019-04-19T08:44:17.978Z,5.03
2019-04-19T08:46:45.129Z,5.93
2019-04-19T08:49:35.252Z,6.00
2019-04-19T08:52:08.386Z,5.20
2019-04-19T08:54:54.745Z,5.73
2019-04-19T08:57:08.112Z,5.60
2019-04-19T08:59:55.193Z,6.00
2019-04-19T09:02:22.065Z,6.53
2019-04-19T09:04:50.700Z,6.47
2019-04-19T09:10:12.275Z,5.27
2019-04-19T09:12:22.678Z,6.03
2019-04-19T09:14:52.288Z,5.30
2019-04-19T09:17:33.155Z,5.90
2019-04-19T09:20:10.075Z,5.70
2019-04-19T09:22:25.751Z,5.43
2019-04-19T09:24:51.782Z,5.50
2019-04-19T09:27:32.891Z,5.63
2019-04-19T09:29:59.026Z,6.17
2019-04-19T09:32:15.290Z,5.63
2019-04-19T09:34:46.104Z,5.60
2019-04-19T09:37:18.286Z,5.20
2019-04-19T09:39:48.737Z,5.57
2019-04-19T09:42:19.353Z,7.40
2019-04-19T09:44:46.088Z,6.97
2019-04-19T09:47:10.367Z,5.73
2019-04-19T09:49:53.259Z,5.83
2019-04-19T09:52:31.769Z,5.90
2019-04-19T09:55:05.916Z,5.00
2019-04-19T09:57:31.353Z,6.97
2019-04-19T09:59:42.994Z,5.30
2019-04-19T10:02:22.438Z,5.03
2019-04-19T10:04:42.083Z,5.70
2019-04-19T10:07:11.205Z,5.60
2019-04-19T10:09:40.785Z,5.23
2019-04-19T10:12:09.290Z,6.20
2019-04-19T10:14:37.725Z,5.40
2019-04-19T10:17:10.623Z,6.30
2019-04-19T10:19:39.029Z,6.80
2019-04-19T10:22:10.142Z,5.20
2019-04-19T10:24:39.061Z,5.00
2019-04-19T10:27:10.722Z,5.33
2019-04-19T10:29:42.659Z,4.43
2019-04-19T10:32:20.310Z,5.00
2019-04-19T10:34:48.913Z,4.77
2019-04-19T10:37:17.680Z,4.27
2019-04-19T10:39:46.224Z,5.10
2019-04-19T10:42:17.797Z,4.80
2019-04-19T10:44:45.249Z,4.60
2019-04-19T10:47:14.606Z,4.60
2019-04-19T10:49:50.917Z,4.87
2019-04-19T10:52:15.235Z,4.53
2019-04-19T10:54:43.879Z,4.80
2019-04-19T10:57:14.557Z,5.37
2019-04-19T10:59:44.616Z,5.30
2019-04-19T11:02:13.844Z,4.73
2019-04-19T11:04:42.852Z,5.00
2019-04-19T11:07:13.775Z,4.57
2019-04-19T11:09:42.265Z,4.80
2019-04-19T11:12:12.085Z,4.40
2019-04-19T11:14:41.946Z,4.27
2019-04-19T11:17:11.855Z,4.57
2019-04-19T11:19:57.426Z,4.50
2019-04-19T11:22:11.839Z,4.70
2019-04-19T11:24:41.567Z,4.10
2019-04-19T11:27:11.068Z,4.70
2019-04-19T11:29:40.732Z,4.70
2019-04-19T11:32:23.963Z,4.90
2019-04-19T11:34:55.487Z,4.37
2019-04-19T11:37:25.477Z,4.70
2019-04-19T11:39:55.160Z,4.27
2019-04-19T11:42:23.925Z,4.77
2019-04-19T11:44:53.783Z,4.47
2019-04-19T11:47:23.020Z,4.13
2019-04-19T11:49:51.604Z,4.97
2019-04-19T11:52:21.972Z,3.83
2019-04-19T11:54:50.704Z,4.37
2019-04-19T11:57:21.246Z,3.87
2019-04-19T12:00:01.095Z,4.30
2019-04-19T12:02:37.986Z,3.23
2019-04-19T12:05:17.702Z,3.57
2019-04-19T12:07:38.743Z,3.90
2019-04-19T12:10:08.839Z,3.97
2019-04-19T12:12:37.392Z,3.60
2019-04-19T12:15:08.388Z,3.00
2019-04-19T12:17:36.854Z,4.10
2019-04-19T12:20:08.284Z,4.60
2019-04-19T12:22:37.896Z,4.20
2019-04-19T12:25:07.819Z,3.37
2019-04-19T12:27:36.465Z,4.43
2019-04-19T12:30:07.520Z,3.67
2019-04-19T12:32:41.509Z,3.80
2019-04-19T12:35:10.958Z,3.60
2019-04-19T12:37:40.791Z,3.73
2019-04-19T12:40:10.821Z,2.60
2019-04-19T12:42:40.265Z,3.50
2019-04-19T12:45:10.523Z,3.53
2019-04-19T12:47:39.238Z,3.80
2019-04-19T12:50:10.805Z,3.90
2019-04-19T12:52:40.061Z,3.07
2019-04-19T12:55:10.142Z,3.00
2019-04-19T12:57:41.577Z,2.53
2019-04-19T13:00:12.003Z,2.63
2019-04-19T13:02:55.867Z,2.83
2019-04-19T13:05:33.379Z,3.03
2019-04-19T13:08:03.153Z,3.27
2019-04-19T13:10:33.216Z,2.87
2019-04-19T13:13:01.949Z,3.43
2019-04-19T13:15:30.733Z,2.30
2019-04-19T13:18:00.327Z,3.00
2019-04-19T13:20:32.497Z,2.40
2019-04-19T13:22:58.965Z,3.07
2019-04-19T13:25:27.544Z,2.90
2019-04-19T13:27:58.311Z,2.73
2019-04-19T13:30:35.565Z,2.80
2019-04-19T13:32:56.540Z,3.10
2019-04-19T13:35:25.381Z,2.57
2019-04-19T13:38:14.816Z,3.37
2019-04-19T13:41:02.863Z,2.00
2019-04-19T13:43:31.506Z,2.60
2019-04-19T13:46:01.025Z,3.17
2019-04-19T13:48:30.366Z,3.00
2019-04-19T13:50:58.812Z,3.33
2019-04-19T13:53:47.476Z,3.00
2019-04-19T13:56:16.001Z,2.43
2019-04-19T13:58:45.351Z,2.53
2019-04-19T14:01:14.392Z,3.07
2019-04-19T14:03:43.583Z,2.60
2019-04-19T14:06:12.957Z,2.70
2019-04-19T14:08:42.570Z,3.23
2019-04-19T14:11:11.469Z,2.80
2019-04-19T14:13:41.099Z,2.73
2019-04-19T14:16:11.225Z,2.60
2019-04-19T14:18:40.603Z,3.00
2019-04-19T14:21:10.600Z,3.07
2019-04-19T14:23:39.654Z,2.87
2019-04-19T14:26:09.626Z,3.07
2019-04-19T14:28:39.125Z,3.10
2019-04-19T14:31:08.369Z,2.77
2019-04-19T14:33:37.162Z,2.90
2019-04-19T14:36:06.161Z,2.40
2019-04-19T14:38:35.926Z,3.13
2019-04-19T14:41:05.272Z,2.70
2019-04-19T14:43:34.386Z,2.67
2019-04-19T14:46:03.019Z,2.83
2019-04-19T14:50:39.759Z,2.60
2019-04-19T14:51:09.548Z,2.63
2019-04-19T14:53:32.934Z,2.53
2019-04-19T14:56:02.534Z,3.10
2019-04-19T14:58:31.117Z,2.80
2019-04-19T15:01:01.229Z,4.27
2019-04-19T15:03:30.782Z,2.80
2019-04-19T15:06:01.575Z,3.07
2019-04-19T15:08:30.775Z,2.53
2019-04-19T15:10:59.780Z,2.20
2019-04-19T15:13:28.612Z,2.40
2019-04-19T15:15:57.061Z,2.93
2019-04-19T15:18:25.534Z,2.50
2019-04-19T15:21:03.233Z,2.83
2019-04-19T15:23:24.669Z,2.40
2019-04-19T15:25:54.780Z,2.87
2019-04-19T15:28:23.269Z,2.47
2019-04-19T15:30:52.025Z,2.90
2019-04-19T15:33:20.666Z,2.13
2019-04-19T15:35:49.831Z,3.07
2019-04-19T15:38:19.617Z,2.73
2019-04-19T15:40:48.638Z,2.80
2019-04-19T15:43:19.246Z,2.90
2019-04-19T15:45:49.269Z,2.10
2019-04-19T15:48:27.578Z,2.93
2019-04-19T15:50:48.155Z,2.50
2019-04-19T15:53:16.578Z,3.30
2019-04-19T15:55:46.217Z,2.77
2019-04-19T15:58:15.094Z,2.97
2019-04-19T16:00:50.828Z,2.37
2019-04-19T16:03:22.513Z,2.23
2019-04-19T16:05:56.043Z,2.60
2019-04-19T16:08:26.649Z,2.83
2019-04-19T16:11:13.246Z,2.70
2019-04-19T16:13:41.846Z,2.23
2019-04-19T16:16:10.337Z,2.13
2019-04-19T16:18:40.230Z,2.27
2019-04-19T16:21:22.914Z,2.00
2019-04-19T16:23:39.367Z,2.10
2019-04-19T16:26:08.870Z,2.10
2019-04-19T16:28:37.502Z,2.30
2019-04-19T16:31:06.440Z,3.00
2019-04-19T16:33:36.128Z,2.70
2019-04-19T16:36:04.925Z,2.20
2019-04-19T16:38:34.673Z,2.43
2019-04-19T16:41:04.441Z,2.20
2019-04-19T16:43:33.499Z,2.17
2019-04-19T16:46:11.703Z,1.73
2019-04-19T16:48:32.736Z,2.30
2019-04-19T16:51:01.351Z,2.37
2019-04-19T16:53:30.072Z,2.13
2019-04-19T16:55:59.489Z,2.13
2019-04-19T16:58:28.517Z,2.63
2019-04-19T17:00:57.016Z,1.87
2019-04-19T17:03:25.666Z,2.00
2019-04-19T17:05:56.521Z,2.30
2019-04-19T17:08:27.527Z,1.80
2019-04-19T17:10:57.465Z,2.00
2019-04-19T17:13:26.739Z,2.30
2019-04-19T17:16:13.383Z,2.43
2019-04-19T17:18:45.196Z,2.20
2019-04-19T17:21:17.531Z,1.70
2019-04-19T17:23:46.829Z,2.00
2019-04-19T17:26:15.409Z,1.93
2019-04-19T17:28:44.268Z,2.47
2019-04-19T17:31:14.138Z,2.10
2019-04-19T17:33:42.613Z,2.20
2019-04-19T17:36:12.359Z,2.60
2019-04-19T17:38:46.300Z,2.07
2019-04-19T17:41:12.413Z,2.30
2019-04-19T17:43:41.543Z,2.23
2019-04-19T17:46:10.586Z,2.00
2019-04-19T17:48:39.153Z,2.33
2019-04-19T17:51:07.797Z,2.00
2019-04-19T17:53:40.781Z,2.10
2019-04-19T17:56:06.403Z,2.63
2019-04-19T17:58:35.935Z,2.23
2019-04-19T18:01:06.223Z,3.37
2019-04-19T18:03:35.262Z,2.57
2019-04-19T18:06:03.811Z,3.10
2019-04-19T18:08:34.286Z,2.00
2019-04-19T18:11:03.457Z,2.00
2019-04-19T18:13:33.052Z,2.10
2019-04-19T18:16:02.760Z,2.30
2019-04-19T18:18:41.303Z,2.20
2019-04-19T18:21:02.625Z,2.57
2019-04-19T18:23:42.391Z,2.23
2019-04-19T18:26:03.223Z,3.07
2019-04-19T18:28:38.341Z,4.03
2019-04-19T18:31:09.377Z,4.70
2019-04-19T18:33:41.255Z,4.13
2019-04-19T18:36:16.333Z,3.03
2019-04-19T18:38:40.300Z,2.90
2019-04-19T18:41:11.320Z,2.57
2019-04-19T18:43:55.560Z,2.70
2019-04-19T18:46:10.917Z,2.40
2019-04-19T18:48:39.827Z,2.60
2019-04-19T18:51:08.669Z,2.53
2019-04-19T18:53:45.056Z,4.27
2019-04-19T18:56:16.341Z,2.73
2019-04-19T18:58:42.373Z,2.73
2019-04-19T19:01:21.585Z,3.47
2019-04-19T19:03:45.775Z,2.50
2019-04-19T19:06:12.804Z,2.60
2019-04-19T19:08:50.108Z,3.03
2019-04-19T19:11:16.376Z,3.10
2019-04-19T19:13:42.829Z,2.93
2019-04-19T19:16:20.535Z,2.83
2019-04-19T19:18:47.528Z,2.37
2019-04-19T19:21:15.897Z,2.40
2019-04-19T19:24:06.992Z,2.67
2019-04-19T19:26:24.703Z,2.90
2019-04-19T19:28:44.312Z,3.43
2019-04-19T19:31:12.870Z,3.30
2019-04-19T19:33:44.576Z,3.17
2019-04-19T19:36:18.187Z,3.40
2019-04-19T19:38:48.819Z,3.10
2019-04-19T19:41:36.650Z,3.20
2019-04-19T19:43:57.759Z,2.83
2019-04-19T19:46:36.721Z,2.77
2019-04-19T19:49:26.462Z,3.13
2019-04-19T19:51:32.269Z,3.50
2019-04-19T19:54:28.490Z,4.47
2019-04-19T19:59:02.179Z,6.70
2019-04-19T20:01:30.625Z,4.70
2019-04-19T20:03:50.192Z,3.70
2019-04-19T20:06:22.619Z,6.30
2019-04-19T20:08:49.365Z,11.97
2019-04-19T20:11:24.672Z,12.20
2019-04-19T20:13:52.009Z,6.97
2019-04-19T20:16:24.801Z,5.63
2019-04-19T20:18:51.197Z,3.90
2019-04-19T20:21:21.596Z,3.53
2019-04-19T20:24:04.346Z,3.00
2019-04-19T20:26:27.742Z,3.00
2019-04-19T20:28:49.939Z,3.03
2019-04-19T20:31:26.153Z,2.87
2019-04-19T20:33:54.738Z,3.23
2019-04-19T20:36:19.003Z,3.77
2019-04-19T20:38:53.512Z,4.10
2019-04-19T20:41:18.584Z,4.67
2019-04-19T20:43:59.369Z,5.40
2019-04-19T20:46:23.233Z,4.30
2019-04-19T20:48:55.396Z,3.30
2019-04-19T20:51:36.274Z,3.67
2019-04-19T20:54:03.880Z,13.10
2019-04-19T20:56:46.781Z,13.43
2019-04-19T20:58:56.323Z,4.10
2019-04-19T21:01:22.889Z,3.90
2019-04-19T21:03:52.957Z,4.10
2019-04-19T21:06:28.386Z,4.53
2019-04-19T21:08:53.292Z,4.97
2019-04-19T21:11:23.520Z,5.80
2019-04-19T21:13:56.736Z,6.80
2019-04-19T21:16:24.343Z,6.63
2019-04-19T21:18:59.032Z,5.57
2019-04-19T21:21:24.178Z,32.43
2019-04-19T21:24:00.472Z,47.53
2019-04-19T21:26:30.398Z,42.53
2019-04-19T21:28:55.952Z,16.50
2019-04-19T21:31:29.240Z,14.60
2019-04-19T21:33:57.745Z,18.03
2019-04-19T21:36:27.790Z,6.87
2019-04-19T21:39:01.165Z,7.07
2019-04-19T21:41:29.671Z,4.40
2019-04-19T21:43:54.557Z,4.80
2019-04-19T21:46:27.180Z,5.07
2019-04-19T21:48:53.121Z,5.60
2019-04-19T21:51:27.567Z,3.80
2019-04-19T21:53:52.886Z,4.40
2019-04-19T21:56:21.807Z,5.47
2019-04-19T21:58:53.072Z,4.73
2019-04-19T22:01:22.898Z,4.30
2019-04-19T22:03:57.402Z,4.47
2019-04-19T22:06:26.169Z,4.60
2019-04-19T22:08:52.366Z,4.07
2019-04-19T22:11:20.937Z,4.30
2019-04-19T22:13:52.527Z,4.00
2019-04-19T22:16:23.594Z,3.50
2019-04-19T22:18:54.094Z,3.87
2019-04-19T22:21:20.785Z,4.20
2019-04-19T22:23:52.583Z,4.97
2019-04-19T22:26:26.963Z,4.17
2019-04-19T22:28:51.264Z,4.40
2019-04-19T22:31:24.435Z,4.77
2019-04-19T22:33:50.326Z,4.37
2019-04-19T22:36:19.593Z,6.90
2019-04-19T22:38:53.639Z,9.03
2019-04-19T22:41:21.023Z,4.00
2019-04-19T22:43:49.026Z,3.80
2019-04-19T22:46:17.508Z,4.13
2019-04-19T22:48:55.373Z,4.20
2019-04-19T22:51:18.507Z,4.20
2019-04-19T22:53:46.475Z,4.07
2019-04-19T22:56:23.848Z,3.73
2019-04-19T22:58:45.275Z,3.57
2019-04-19T23:01:22.735Z,3.83
2019-04-19T23:03:48.617Z,3.80
2019-04-19T23:06:22.549Z,3.90
2019-04-19T23:08:48.349Z,3.93
2019-04-19T23:11:17.354Z,4.13
2019-04-19T23:13:45.829Z,4.50
2019-04-19T23:16:15.425Z,3.53
2019-04-19T23:18:48.110Z,3.43
2019-04-19T23:21:19.491Z,3.43
2019-04-19T23:23:45.006Z,3.43
2019-04-19T23:26:22.349Z,3.43
2019-04-19T23:28:45.960Z,3.47
2019-04-19T23:31:15.567Z,3.40
2019-04-19T23:33:50.156Z,3.20
2019-04-19T23:36:17.742Z,4.27
2019-04-19T23:38:45.402Z,3.40
2019-04-19T23:41:14.910Z,3.73
2019-04-19T23:43:45.573Z,3.50
2019-04-19T23:46:18.423Z,3.50
2019-04-19T23:48:44.756Z,3.40
2019-04-19T23:51:16.608Z,3.60
2019-04-19T23:53:44.783Z,3.13
2019-04-19T23:56:25.993Z,3.73
2019-04-19T23:58:44.413Z,4.13
